Terminal Aerodrome Forecast
Issued by NWS

Current Version | Previous Version | Text Only | Print | Product List | Glossary On
Versions: 1 2 3 4 5 6 7 8 9 10 11 12 13 14 15 16 17 18 19
000
FTUS41 KAKQ 260548 RRA
TAFPHF
TAF
KPHF 260548Z 2606/2706 04006KT P6SM BKN007 OVC015
     FM260900 04007KT 5SM -RA BR OVC007
     FM261700 03008KT P6SM OVC015
     FM262100 03006KT P6SM BKN050
     FM270100 01002KT P6SM SCT250=

USA.gov is the U.S. government's official web portal to all federal, state and local government web resources and services.